LGKO/KGS METAR and TAF weather

Enter ICAO airport designator
Station Type Date Time Source
LGKO METAR 2022/06/27 07:20 UTC NOAA

LGKO 270720Z 35017KT CAVOK 26/15 Q1011


Station Type Date Time Source
LGKO Decoded METAR 2022/06/27 07:20 UTC NOAA

Kos Airport , Greece (LGKO) 36-47N 027-04E
Jun 27, 2022 - 03:20 AM EDT / 2022.06.27 0720 UTC
Wind: from the N (350 degrees) at 20 MPH (17 KT):0
Visibility: greater than 7 mile(s):0
Temperature: 78 F (26 C)
Dew Point: 59 F (15 C)
Relative Humidity: 50%
Pressure (altimeter): 29.85 in. Hg (1011 hPa)
ob: LGKO 270720Z 35017KT CAVOK 26/15 Q1011
cycle: 7

Station Type Date Time Source
LGKO TAF 2022/06/27 06:12 UTC NOAA

TAF LGKO 270500Z 2706/2806 34015KT 9999 FEW020
BECMG 2709/2711 34018G28KT

Example: see airport list